createdAt,value
2023-03-17T00:00:46.734Z,9.80
2023-03-17T00:03:20.746Z,8.40
2023-03-17T00:05:50.874Z,11.20
2023-03-17T00:08:22.928Z,10.45
2023-03-17T00:10:51.917Z,9.48
2023-03-17T00:13:20.376Z,8.48
2023-03-17T00:15:50.656Z,8.95
2023-03-17T00:18:19.752Z,8.73
2023-03-17T00:20:48.615Z,10.07
2023-03-17T00:23:19.783Z,10.18
2023-03-17T00:25:48.528Z,8.10
2023-03-17T00:28:18.488Z,7.38
2023-03-17T00:30:47.653Z,9.68
2023-03-17T00:33:17.021Z,11.07
2023-03-17T00:35:46.575Z,10.45
2023-03-17T00:38:18.095Z,8.93
2023-03-17T00:43:14.728Z,11.68
2023-03-17T00:45:44.065Z,9.63
2023-03-17T00:48:14.777Z,8.95
2023-03-17T00:50:45.020Z,7.00
2023-03-17T00:53:15.477Z,9.98
2023-03-17T00:55:46.021Z,6.72
2023-03-17T00:58:16.078Z,9.35
2023-03-17T01:00:45.505Z,9.63
2023-03-17T01:03:14.543Z,8.45
2023-03-17T01:05:43.151Z,10.02
2023-03-17T01:08:14.301Z,8.50
2023-03-17T01:10:42.747Z,10.93
2023-03-17T01:13:14.499Z,7.38
2023-03-17T01:15:46.162Z,9.77
2023-03-17T01:18:15.919Z,8.13
2023-03-17T01:20:44.691Z,11.45
2023-03-17T01:23:13.423Z,8.65
2023-03-17T01:25:42.800Z,8.10
2023-03-17T01:28:12.227Z,7.65
2023-03-17T01:30:43.639Z,8.52
2023-03-17T01:33:15.449Z,8.98
2023-03-17T01:35:45.694Z,9.82
2023-03-17T01:38:17.441Z,8.40
2023-03-17T01:40:47.208Z,8.13
2023-03-17T01:43:20.057Z,8.13
2023-03-17T01:46:07.496Z,7.13
2023-03-17T01:48:40.003Z,8.80
2023-03-17T01:51:08.908Z,6.55
2023-03-17T01:53:37.699Z,9.13
2023-03-17T01:56:06.353Z,8.98
2023-03-17T01:58:35.311Z,8.68
2023-03-17T02:01:03.778Z,8.07
2023-03-17T02:03:32.125Z,7.05
2023-03-17T02:06:02.160Z,7.60
2023-03-17T02:08:30.494Z,7.47
2023-03-17T02:10:58.944Z,8.40
2023-03-17T02:13:28.360Z,8.77
2023-03-17T02:15:56.984Z,7.65
2023-03-17T02:18:25.789Z,8.85
2023-03-17T02:21:12.114Z,10.18
2023-03-17T02:23:44.906Z,9.55
2023-03-17T02:26:13.693Z,8.43
2023-03-17T02:28:45.924Z,8.13
2023-03-17T02:31:14.535Z,7.80
2023-03-17T02:33:43.521Z,7.97
2023-03-17T02:36:11.905Z,9.45
2023-03-17T02:38:41.122Z,8.88
2023-03-17T02:41:10.961Z,8.40
2023-03-17T02:43:41.285Z,7.25
2023-03-17T02:46:09.653Z,8.30
2023-03-17T02:48:38.458Z,7.85
2023-03-17T02:51:06.988Z,9.00
2023-03-17T02:53:35.389Z,10.75
2023-03-17T02:56:03.791Z,8.75
2023-03-17T02:58:33.510Z,9.85
2023-03-17T03:01:02.232Z,9.98
2023-03-17T03:03:30.758Z,7.63
2023-03-17T03:06:00.430Z,10.75
2023-03-17T03:08:30.475Z,9.18
2023-03-17T03:11:00.300Z,9.23
2023-03-17T03:13:28.809Z,9.82
2023-03-17T03:15:58.672Z,8.35
2023-03-17T03:18:27.170Z,8.88
2023-03-17T03:20:55.881Z,8.90
2023-03-17T03:23:24.289Z,8.77
2023-03-17T03:25:52.745Z,9.05
2023-03-17T03:28:21.319Z,10.45
2023-03-17T03:30:49.859Z,8.95
2023-03-17T03:33:19.988Z,9.88
2023-03-17T03:35:48.435Z,7.88
2023-03-17T03:38:16.986Z,9.35
2023-03-17T03:40:46.713Z,10.52
2023-03-17T03:43:22.876Z,10.63
2023-03-17T03:45:52.826Z,7.97
2023-03-17T03:48:22.912Z,11.60
2023-03-17T03:50:51.348Z,9.07
2023-03-17T03:53:19.689Z,9.20
2023-03-17T03:55:48.086Z,9.52
2023-03-17T03:58:16.455Z,9.27
2023-03-17T04:00:44.792Z,9.30
2023-03-17T04:03:13.316Z,9.43
2023-03-17T04:05:43.145Z,9.52
2023-03-17T04:08:12.027Z,10.18
2023-03-17T04:10:40.353Z,8.05
2023-03-17T04:13:08.877Z,11.35
2023-03-17T04:15:37.494Z,8.18
2023-03-17T04:18:06.212Z,8.73
2023-03-17T04:20:34.658Z,11.48
2023-03-17T04:23:04.381Z,9.57
2023-03-17T04:25:33.233Z,9.88
2023-03-17T04:28:03.857Z,10.90
2023-03-17T04:30:32.759Z,9.40
2023-03-17T04:33:01.620Z,9.70
2023-03-17T04:35:29.950Z,10.07
2023-03-17T04:37:58.332Z,10.18
2023-03-17T04:40:28.150Z,10.93
2023-03-17T04:42:56.610Z,8.95
2023-03-17T04:45:25.377Z,12.50
2023-03-17T04:47:53.761Z,8.50
2023-03-17T04:50:22.182Z,9.68
2023-03-17T04:52:50.631Z,9.80
2023-03-17T04:55:19.008Z,9.23
2023-03-17T04:57:48.777Z,10.40
2023-03-17T05:00:18.127Z,11.05
2023-03-17T05:02:46.618Z,13.13
2023-03-17T05:05:15.074Z,9.48
2023-03-17T05:07:44.677Z,8.88
2023-03-17T05:10:13.711Z,10.07
2023-03-17T05:12:42.124Z,9.65
2023-03-17T05:15:12.220Z,10.40
2023-03-17T05:17:40.793Z,12.85
2023-03-17T05:20:10.670Z,11.65
2023-03-17T05:22:39.050Z,14.75
2023-03-17T05:25:07.666Z,11.02
2023-03-17T05:27:36.140Z,12.30
2023-03-17T05:30:04.673Z,10.52
2023-03-17T05:32:34.436Z,8.75
2023-03-17T05:35:03.562Z,10.73
2023-03-17T05:37:31.956Z,9.30
2023-03-17T05:40:01.028Z,9.90
2023-03-17T05:42:29.455Z,9.48
2023-03-17T05:44:58.517Z,12.98
2023-03-17T05:47:27.878Z,11.35
2023-03-17T05:49:57.722Z,10.23
2023-03-17T05:52:26.260Z,9.57
2023-03-17T05:54:55.744Z,12.85
2023-03-17T05:57:24.068Z,11.68
2023-03-17T05:59:52.628Z,11.43
2023-03-17T06:02:21.088Z,9.35
2023-03-17T06:04:52.087Z,10.13
2023-03-17T06:07:21.913Z,9.70
2023-03-17T06:09:50.213Z,14.00
2023-03-17T06:12:18.685Z,13.38
2023-03-17T06:14:47.058Z,12.05
2023-03-17T06:17:15.465Z,10.05
2023-03-17T06:19:44.129Z,13.35
2023-03-17T06:22:13.119Z,11.68
2023-03-17T06:24:42.855Z,11.40
2023-03-17T06:27:12.998Z,13.10
2023-03-17T06:29:41.617Z,10.80
2023-03-17T06:32:20.355Z,12.30
2023-03-17T06:34:49.412Z,10.65
2023-03-17T06:37:17.797Z,11.98
2023-03-17T06:39:48.123Z,12.90
2023-03-17T06:42:16.683Z,13.20
2023-03-17T06:44:45.304Z,10.25
2023-03-17T06:47:14.120Z,13.20
2023-03-17T06:49:42.474Z,13.75
2023-03-17T06:52:11.036Z,12.13
2023-03-17T06:54:39.359Z,13.18
2023-03-17T06:57:09.441Z,11.38
2023-03-17T06:59:37.871Z,13.27
2023-03-17T07:02:06.316Z,11.40
2023-03-17T07:04:35.216Z,10.32
2023-03-17T07:07:05.140Z,11.60
2023-03-17T07:09:34.388Z,12.88
2023-03-17T07:12:04.943Z,13.32
2023-03-17T07:14:36.530Z,10.80
2023-03-17T07:17:06.377Z,10.55
2023-03-17T07:19:38.655Z,10.05
2023-03-17T07:22:10.613Z,10.05
2023-03-17T07:24:41.789Z,13.35
2023-03-17T07:27:10.164Z,10.80
2023-03-17T07:29:39.768Z,12.02
2023-03-17T07:32:09.654Z,11.60
2023-03-17T07:34:38.354Z,10.45
2023-03-17T07:37:07.054Z,9.95
2023-03-17T07:39:35.932Z,12.63
2023-03-17T07:42:04.908Z,10.18
2023-03-17T07:44:33.450Z,11.90
2023-03-17T07:47:03.182Z,9.40
2023-03-17T07:49:41.250Z,11.13
2023-03-17T07:52:10.763Z,9.15
2023-03-17T07:54:42.290Z,9.20
2023-03-17T07:57:11.454Z,12.77
2023-03-17T07:59:41.644Z,10.15
2023-03-17T08:02:16.167Z,9.82
2023-03-17T08:04:44.786Z,9.60
2023-03-17T08:07:14.556Z,9.05
2023-03-17T08:09:42.964Z,8.35
2023-03-17T08:12:11.780Z,7.22
2023-03-17T08:14:41.306Z,7.40
2023-03-17T08:17:10.415Z,7.07
2023-03-17T08:19:40.937Z,8.93
2023-03-17T08:22:09.566Z,6.80
2023-03-17T08:24:39.550Z,6.43
2023-03-17T08:27:08.695Z,6.50
2023-03-17T08:29:37.192Z,8.95
2023-03-17T08:32:05.612Z,7.22
2023-03-17T08:34:34.763Z,7.63
2023-03-17T08:37:04.427Z,7.82
2023-03-17T08:39:32.756Z,7.57
2023-03-17T08:42:01.173Z,7.88
2023-03-17T08:44:29.684Z,6.78
2023-03-17T08:46:58.511Z,6.97
2023-03-17T08:49:27.874Z,5.95
2023-03-17T08:51:56.195Z,6.85
2023-03-17T08:54:25.878Z,7.45
2023-03-17T08:56:54.216Z,7.97
2023-03-17T08:59:23.023Z,8.35
2023-03-17T09:01:54.547Z,7.15
2023-03-17T09:04:23.892Z,6.30
2023-03-17T09:07:02.930Z,5.70
2023-03-17T09:09:34.456Z,8.15
2023-03-17T09:12:04.262Z,6.80
2023-03-17T09:14:42.573Z,5.95
2023-03-17T09:17:11.576Z,7.20
2023-03-17T09:19:40.446Z,6.32
2023-03-17T09:22:08.986Z,7.75
2023-03-17T09:24:38.636Z,6.75
2023-03-17T09:27:07.045Z,6.07
2023-03-17T09:29:35.518Z,6.47
2023-03-17T09:32:07.216Z,7.57
2023-03-17T09:34:37.909Z,8.52
2023-03-17T09:37:06.982Z,6.20
2023-03-17T09:39:35.875Z,5.78
2023-03-17T09:42:14.537Z,6.25
2023-03-17T09:44:49.545Z,7.57
2023-03-17T09:47:37.710Z,7.35
2023-03-17T09:50:12.432Z,6.45
2023-03-17T09:52:40.815Z,7.50
2023-03-17T09:55:13.949Z,5.70
2023-03-17T09:57:44.741Z,8.35
2023-03-17T10:00:15.377Z,5.40
2023-03-17T10:02:49.156Z,5.90
2023-03-17T10:05:21.158Z,6.28
2023-03-17T10:07:54.005Z,6.82
2023-03-17T10:10:33.719Z,6.22
2023-03-17T10:13:06.659Z,7.05
2023-03-17T10:15:38.300Z,5.90
2023-03-17T10:18:11.245Z,6.38
2023-03-17T10:20:46.047Z,5.50
2023-03-17T10:23:16.424Z,8.55
2023-03-17T10:25:44.762Z,5.93
2023-03-17T10:28:22.875Z,6.53
2023-03-17T10:30:51.516Z,5.38
2023-03-17T10:33:19.913Z,6.57
2023-03-17T10:35:48.425Z,6.70
2023-03-17T10:38:17.851Z,7.70
2023-03-17T10:40:48.244Z,6.95
2023-03-17T10:43:22.294Z,8.05
2023-03-17T10:45:59.555Z,17.58
2023-03-17T10:48:28.185Z,9.07
2023-03-17T10:50:58.306Z,6.45
2023-03-17T10:53:28.846Z,7.25
2023-03-17T10:55:59.606Z,6.38
2023-03-17T10:58:37.306Z,5.57
2023-03-17T11:01:09.957Z,5.47
2023-03-17T11:03:40.548Z,6.03
2023-03-17T11:06:15.787Z,5.90
2023-03-17T11:08:48.871Z,5.68
2023-03-17T11:11:24.262Z,6.13
2023-03-17T11:14:02.763Z,5.95
2023-03-17T11:16:32.138Z,6.15
2023-03-17T11:19:01.838Z,4.93
2023-03-17T11:21:31.990Z,5.25
2023-03-17T11:24:04.480Z,6.10
2023-03-17T11:26:50.734Z,5.80
2023-03-17T11:29:24.445Z,6.28
2023-03-17T11:31:59.740Z,7.32
2023-03-17T11:34:33.705Z,7.90
2023-03-17T11:37:06.913Z,6.35
2023-03-17T11:39:37.973Z,5.18
2023-03-17T11:42:10.178Z,4.90
2023-03-17T11:45:04.730Z,5.03
2023-03-17T11:47:40.287Z,7.72
2023-03-17T11:50:12.841Z,5.40
2023-03-17T11:52:48.526Z,6.57
2023-03-17T11:55:21.594Z,6.82
2023-03-17T11:57:52.280Z,4.80
2023-03-17T12:00:25.437Z,7.25
2023-03-17T12:03:00.476Z,4.90
2023-03-17T12:05:31.521Z,3.88
2023-03-17T12:08:01.475Z,4.40
2023-03-17T12:10:34.379Z,6.03
2023-03-17T12:13:05.169Z,5.05
2023-03-17T12:15:37.667Z,4.00
2023-03-17T12:18:07.650Z,4.97
2023-03-17T12:20:43.554Z,5.15
2023-03-17T12:23:14.751Z,5.55
2023-03-17T12:25:46.941Z,8.93
2023-03-17T12:28:16.961Z,6.57
2023-03-17T12:30:49.531Z,6.82
2023-03-17T12:33:21.532Z,6.65
2023-03-17T12:35:52.976Z,5.28
2023-03-17T12:38:24.615Z,6.13
2023-03-17T12:41:11.709Z,5.82
2023-03-17T12:43:50.083Z,7.05
2023-03-17T12:46:28.526Z,4.95
2023-03-17T12:49:04.284Z,5.72
2023-03-17T12:51:40.854Z,4.53
2023-03-17T12:54:14.168Z,5.90
2023-03-17T12:56:46.179Z,4.93
2023-03-17T12:59:17.098Z,5.20
2023-03-17T13:01:48.526Z,5.25
2023-03-17T13:04:19.761Z,5.50
2023-03-17T13:06:54.840Z,6.32
2023-03-17T13:09:31.822Z,5.88
2023-03-17T13:12:01.200Z,6.93
2023-03-17T13:14:40.943Z,4.78
2023-03-17T13:17:25.464Z,4.60
2023-03-17T13:19:58.797Z,5.88
2023-03-17T13:22:35.344Z,4.80
2023-03-17T13:25:32.597Z,3.97
2023-03-17T13:28:31.902Z,4.68
2023-03-17T13:31:16.179Z,4.30
2023-03-17T13:33:46.621Z,5.15
2023-03-17T13:36:31.850Z,4.43
2023-03-17T13:39:25.971Z,5.97
2023-03-17T13:42:15.634Z,5.18
2023-03-17T13:45:13.166Z,5.75
2023-03-17T13:47:46.071Z,6.68
2023-03-17T13:50:17.879Z,6.28
2023-03-17T13:52:51.230Z,4.63
2023-03-17T13:55:53.561Z,4.03
2023-03-17T13:58:27.511Z,7.72
2023-03-17T14:01:02.561Z,4.68
2023-03-17T14:03:47.034Z,4.75
2023-03-17T14:06:17.106Z,6.47
2023-03-17T14:08:50.825Z,5.00
2023-03-17T14:11:30.623Z,4.55
2023-03-17T14:14:31.218Z,5.40
2023-03-17T14:17:02.737Z,5.38
2023-03-17T14:19:32.133Z,6.18
2023-03-17T14:22:04.404Z,5.18
2023-03-17T14:24:35.336Z,6.07
2023-03-17T14:27:07.895Z,4.80
2023-03-17T14:29:36.640Z,4.13
2023-03-17T14:32:06.780Z,5.18
2023-03-17T14:34:35.364Z,4.43
2023-03-17T14:37:04.374Z,5.45
2023-03-17T14:39:35.342Z,5.35
2023-03-17T14:42:04.498Z,5.22
2023-03-17T14:44:39.191Z,11.93
2023-03-17T14:47:10.708Z,6.70
2023-03-17T14:49:40.353Z,7.97
2023-03-17T14:52:17.476Z,8.57
2023-03-17T14:54:59.309Z,6.43
2023-03-17T14:57:31.334Z,9.13
2023-03-17T15:00:01.594Z,6.55
2023-03-17T15:02:35.232Z,7.35
2023-03-17T15:05:26.660Z,5.72
2023-03-17T15:08:34.519Z,5.78
2023-03-17T15:11:06.870Z,4.32
2023-03-17T15:13:36.518Z,5.03
2023-03-17T15:16:08.297Z,5.20
2023-03-17T15:18:37.039Z,4.53
2023-03-17T15:21:05.430Z,4.85
2023-03-17T15:23:41.174Z,4.05
2023-03-17T15:26:23.282Z,5.45
2023-03-17T15:28:51.640Z,5.35
2023-03-17T15:31:23.355Z,4.30
2023-03-17T15:33:51.923Z,3.97
2023-03-17T15:36:31.745Z,5.55
2023-03-17T15:39:00.456Z,5.78
2023-03-17T15:41:30.204Z,4.63
2023-03-17T15:43:58.619Z,3.53
2023-03-17T15:46:34.290Z,3.75
2023-03-17T15:49:05.360Z,3.38
2023-03-17T15:51:37.776Z,6.15
2023-03-17T15:54:16.362Z,4.72
2023-03-17T15:56:51.712Z,5.13
2023-03-17T15:59:21.335Z,5.75
2023-03-17T16:01:52.428Z,5.38
2023-03-17T16:04:27.369Z,4.53
2023-03-17T16:06:55.949Z,5.30
2023-03-17T16:09:36.613Z,6.13
2023-03-17T16:12:09.101Z,5.22
2023-03-17T16:14:38.034Z,9.40
2023-03-17T16:17:07.061Z,4.63
2023-03-17T16:19:36.824Z,4.93
2023-03-17T16:22:05.467Z,4.32
2023-03-17T16:24:34.642Z,7.28
2023-03-17T16:27:03.211Z,4.82
2023-03-17T16:29:33.042Z,5.72
2023-03-17T16:32:01.364Z,8.77
2023-03-17T16:34:29.709Z,5.55
2023-03-17T16:36:58.194Z,7.90
2023-03-17T16:39:26.597Z,8.10
2023-03-17T16:41:55.023Z,8.95
2023-03-17T16:44:23.876Z,11.10
2023-03-17T16:46:53.910Z,9.20
2023-03-17T16:49:23.560Z,10.85
2023-03-17T16:51:52.052Z,7.78
2023-03-17T16:54:21.665Z,11.82
2023-03-17T16:56:50.202Z,10.23
2023-03-17T16:59:20.826Z,9.80
2023-03-17T17:01:52.425Z,9.07
2023-03-17T17:04:26.098Z,11.70
2023-03-17T17:06:59.064Z,10.85
2023-03-17T17:09:27.566Z,12.00
2023-03-17T17:11:56.949Z,14.25
2023-03-17T17:14:25.476Z,12.82
2023-03-17T17:16:53.893Z,14.63
2023-03-17T17:19:24.948Z,11.27
2023-03-17T17:21:53.425Z,11.55
2023-03-17T17:24:21.793Z,9.80
2023-03-17T17:26:50.244Z,8.52
2023-03-17T17:29:18.805Z,8.00
2023-03-17T17:31:47.300Z,11.48
2023-03-17T17:34:20.953Z,9.73
2023-03-17T17:36:50.859Z,9.25
2023-03-17T17:39:19.246Z,7.30
2023-03-17T17:41:47.677Z,7.28
2023-03-17T17:44:16.122Z,7.93
2023-03-17T17:46:44.524Z,8.63
2023-03-17T17:49:13.120Z,6.53
2023-03-17T17:51:41.487Z,7.28
2023-03-17T17:54:12.130Z,5.97
2023-03-17T17:56:46.599Z,6.00
2023-03-17T17:59:15.036Z,5.57
2023-03-17T18:01:54.210Z,7.50
2023-03-17T18:04:24.957Z,5.47
2023-03-17T18:06:53.513Z,6.28
2023-03-17T18:09:23.190Z,5.82
2023-03-17T18:11:52.061Z,7.47
2023-03-17T18:14:21.472Z,7.13
2023-03-17T18:16:49.913Z,8.27
2023-03-17T18:19:18.386Z,10.23
2023-03-17T18:21:47.639Z,11.27
2023-03-17T18:24:16.286Z,14.68
2023-03-17T18:26:46.598Z,11.55
2023-03-17T18:29:15.216Z,10.60
2023-03-17T18:31:45.957Z,14.07
2023-03-17T18:34:18.958Z,11.73
2023-03-17T18:36:48.039Z,11.48
2023-03-17T18:39:16.614Z,10.15
2023-03-17T18:41:46.485Z,11.15
2023-03-17T18:44:14.890Z,8.10
2023-03-17T18:46:43.826Z,7.57
2023-03-17T18:49:12.415Z,10.18
2023-03-17T18:51:40.944Z,7.35
2023-03-17T18:54:09.413Z,9.63
2023-03-17T18:56:38.391Z,8.90
2023-03-17T18:59:11.165Z,9.80
2023-03-17T19:01:39.718Z,6.63
2023-03-17T19:04:08.124Z,7.45
2023-03-17T19:06:39.394Z,10.75
2023-03-17T19:09:09.064Z,9.75
2023-03-17T19:11:38.763Z,7.30
2023-03-17T19:14:07.220Z,9.30
2023-03-17T19:16:37.319Z,9.27
2023-03-17T19:19:06.492Z,13.52
2023-03-17T19:21:34.827Z,12.45
2023-03-17T19:24:04.876Z,10.75
2023-03-17T19:26:33.610Z,9.60
2023-03-17T19:29:02.271Z,6.20
2023-03-17T19:31:30.690Z,9.50
2023-03-17T19:34:00.374Z,13.50
2023-03-17T19:36:28.783Z,10.90
2023-03-17T19:38:57.161Z,14.57
2023-03-17T19:41:25.680Z,21.95
2023-03-17T19:43:54.041Z,47.05
2023-03-17T19:46:23.030Z,20.33
2023-03-17T19:48:53.477Z,8.10
2023-03-17T19:51:23.253Z,5.72
2023-03-17T19:53:51.756Z,6.00
2023-03-17T19:56:21.104Z,6.75
2023-03-17T19:58:49.468Z,5.90
2023-03-17T20:01:17.995Z,7.22
2023-03-17T20:03:46.422Z,4.70
2023-03-17T20:06:15.068Z,6.38
2023-03-17T20:08:45.104Z,9.88
2023-03-17T20:11:13.898Z,10.00
2023-03-17T20:13:42.620Z,22.38
2023-03-17T20:16:12.253Z,12.13
2023-03-17T20:18:40.849Z,8.73
2023-03-17T20:21:13.194Z,10.52
2023-03-17T20:23:41.805Z,7.88
2023-03-17T20:26:11.542Z,9.65
2023-03-17T20:28:39.900Z,21.20
2023-03-17T20:31:09.157Z,14.27
2023-03-17T20:33:37.805Z,13.55
2023-03-17T20:36:07.826Z,9.93
2023-03-17T20:38:38.801Z,16.27
2023-03-17T20:41:08.175Z,13.75
2023-03-17T20:43:40.364Z,14.45
2023-03-17T20:46:09.568Z,14.45
2023-03-17T20:48:38.326Z,13.60
2023-03-17T20:51:07.002Z,13.00
2023-03-17T20:53:36.260Z,15.40
2023-03-17T20:56:04.750Z,16.35
2023-03-17T20:58:33.702Z,13.73
2023-03-17T21:01:03.507Z,14.23
2023-03-17T21:03:32.359Z,18.60
2023-03-17T21:06:01.284Z,11.70
2023-03-17T21:08:29.658Z,10.68
2023-03-17T21:10:58.091Z,12.02
2023-03-17T21:13:26.512Z,9.90
2023-03-17T21:15:55.363Z,11.02
2023-03-17T21:18:25.210Z,10.05
2023-03-17T21:20:53.540Z,12.65
2023-03-17T21:23:22.824Z,11.45
2023-03-17T21:25:55.156Z,11.32
2023-03-17T21:28:23.893Z,12.38
2023-03-17T21:30:52.616Z,14.82
2023-03-17T21:33:21.360Z,13.25
2023-03-17T21:35:52.224Z,14.65
2023-03-17T21:38:20.729Z,13.05
2023-03-17T21:40:49.105Z,10.50
2023-03-17T21:43:17.652Z,11.52
2023-03-17T21:45:46.090Z,12.35
2023-03-17T21:48:14.541Z,12.40
2023-03-17T21:50:43.106Z,15.27
2023-03-17T21:53:18.141Z,12.27
2023-03-17T21:55:46.622Z,14.07
2023-03-17T21:58:14.935Z,13.25
2023-03-17T22:00:45.866Z,14.93
2023-03-17T22:03:14.878Z,13.85
2023-03-17T22:05:43.922Z,11.98
2023-03-17T22:08:14.299Z,14.95
2023-03-17T22:10:42.953Z,14.55
2023-03-17T22:13:11.247Z,11.48
2023-03-17T22:15:39.666Z,12.90
2023-03-17T22:18:08.025Z,10.05
2023-03-17T22:20:36.427Z,9.50
2023-03-17T22:23:04.816Z,10.73
2023-03-17T22:25:34.523Z,10.63
2023-03-17T22:28:03.066Z,11.48
2023-03-17T22:30:31.855Z,11.52
2023-03-17T22:33:00.627Z,7.75
2023-03-17T22:35:29.085Z,9.45
2023-03-17T22:37:57.723Z,10.25
2023-03-17T22:40:26.490Z,10.05
2023-03-17T22:42:57.960Z,10.10
2023-03-17T22:45:26.578Z,8.43
2023-03-17T22:47:55.418Z,10.02
2023-03-17T22:50:24.175Z,11.98
2023-03-17T22:52:52.784Z,11.10
2023-03-17T22:55:24.303Z,9.57
2023-03-17T22:58:01.338Z,8.85
2023-03-17T23:00:34.462Z,8.85
2023-03-17T23:03:02.815Z,11.13
2023-03-17T23:05:31.167Z,9.35
2023-03-17T23:07:59.539Z,10.43
2023-03-17T23:10:28.434Z,10.70
2023-03-17T23:12:57.124Z,11.00
2023-03-17T23:15:26.320Z,12.63
2023-03-17T23:17:56.625Z,10.68
2023-03-17T23:20:25.339Z,11.40
2023-03-17T23:22:53.804Z,9.25
2023-03-17T23:25:22.696Z,10.15
2023-03-17T23:27:51.482Z,11.50
2023-03-17T23:30:19.916Z,11.00
2023-03-17T23:32:49.080Z,8.20
2023-03-17T23:35:19.477Z,10.10
2023-03-17T23:37:48.156Z,11.15
2023-03-17T23:40:19.011Z,9.55
2023-03-17T23:42:48.717Z,12.38
2023-03-17T23:45:17.989Z,14.05
2023-03-17T23:47:47.099Z,16.23
2023-03-17T23:50:16.513Z,17.48
2023-03-17T23:52:47.041Z,18.08
2023-03-17T23:55:15.991Z,14.00
